sensor_id;sensor_type;location;lat;lon;timestamp;P1;durP1;ratioP1;P2;durP2;ratioP2
30249;SDS011;17064;47.974;13.826;2023-02-28T04:05:13;26.90;;;11.43;;
30249;SDS011;17064;47.974;13.826;2023-02-28T04:10:14;22.65;;;11.27;;
30249;SDS011;17064;47.974;13.826;2023-02-28T04:15:16;24.38;;;10.98;;
30249;SDS011;17064;47.974;13.826;2023-02-28T04:20:16;22.50;;;10.98;;
30249;SDS011;17064;47.974;13.826;2023-02-28T04:25:17;25.83;;;10.73;;
30249;SDS011;17064;47.974;13.826;2023-02-28T04:30:18;28.52;;;10.65;;
30249;SDS011;17064;47.974;13.826;2023-02-28T04:35:19;24.17;;;11.82;;
30249;SDS011;17064;47.974;13.826;2023-02-28T04:40:20;26.77;;;11.38;;
30249;SDS011;17064;47.974;13.826;2023-02-28T04:45:21;20.05;;;10.15;;
30249;SDS011;17064;47.974;13.826;2023-02-28T04:50:22;21.77;;;9.93;;
30249;SDS011;17064;47.974;13.826;2023-02-28T04:55:22;30.30;;;11.38;;
30249;SDS011;17064;47.974;13.826;2023-02-28T05:00:23;25.35;;;11.38;;
30249;SDS011;17064;47.974;13.826;2023-02-28T05:05:24;23.65;;;11.15;;
30249;SDS011;17064;47.974;13.826;2023-02-28T05:10:24;24.17;;;11.32;;
30249;SDS011;17064;47.974;13.826;2023-02-28T05:15:25;24.73;;;10.95;;
30249;SDS011;17064;47.974;13.826;2023-02-28T05:20:26;22.75;;;10.65;;
30249;SDS011;17064;47.974;13.826;2023-02-28T05:25:26;25.00;;;11.65;;
30249;SDS011;17064;47.974;13.826;2023-02-28T05:30:27;25.25;;;10.70;;
30249;SDS011;17064;47.974;13.826;2023-02-28T05:35:28;23.73;;;11.15;;
30249;SDS011;17064;47.974;13.826;2023-02-28T05:40:29;23.48;;;10.82;;
30249;SDS011;17064;47.974;13.826;2023-02-28T05:45:29;24.33;;;11.35;;
30249;SDS011;17064;47.974;13.826;2023-02-28T05:50:30;23.92;;;10.65;;
30249;SDS011;17064;47.974;13.826;2023-02-28T05:55:32;29.10;;;12.15;;
30249;SDS011;17064;47.974;13.826;2023-02-28T06:00:33;27.55;;;12.27;;
30249;SDS011;17064;47.974;13.826;2023-02-28T06:05:34;23.30;;;10.95;;
30249;SDS011;17064;47.974;13.826;2023-02-28T06:10:34;19.98;;;9.98;;
30249;SDS011;17064;47.974;13.826;2023-02-28T06:15:35;22.52;;;10.02;;
30249;SDS011;17064;47.974;13.826;2023-02-28T06:20:36;22.15;;;9.40;;
30249;SDS011;17064;47.974;13.826;2023-02-28T06:25:37;17.42;;;8.35;;
30249;SDS011;17064;47.974;13.826;2023-02-28T06:30:38;19.73;;;9.32;;
30249;SDS011;17064;47.974;13.826;2023-02-28T06:35:39;19.83;;;10.13;;
30249;SDS011;17064;47.974;13.826;2023-02-28T06:40:39;17.48;;;9.20;;
30249;SDS011;17064;47.974;13.826;2023-02-28T06:45:43;15.95;;;7.95;;
30249;SDS011;17064;47.974;13.826;2023-02-28T06:50:44;18.33;;;9.27;;
30249;SDS011;17064;47.974;13.826;2023-02-28T06:55:45;18.85;;;10.00;;
30249;SDS011;17064;47.974;13.826;2023-02-28T07:00:46;16.73;;;9.40;;
30249;SDS011;17064;47.974;13.826;2023-02-28T07:05:53;15.85;;;8.60;;
30249;SDS011;17064;47.974;13.826;2023-02-28T07:10:56;22.67;;;9.10;;
30249;SDS011;17064;47.974;13.826;2023-02-28T07:15:58;19.80;;;9.18;;
30249;SDS011;17064;47.974;13.826;2023-02-28T07:21:01;22.88;;;10.13;;
30249;SDS011;17064;47.974;13.826;2023-02-28T07:26:04;22.05;;;9.27;;
30249;SDS011;17064;47.974;13.826;2023-02-28T07:31:06;22.13;;;10.38;;
30249;SDS011;17064;47.974;13.826;2023-02-28T07:36:08;29.90;;;12.05;;
30249;SDS011;17064;47.974;13.826;2023-02-28T07:41:15;25.05;;;11.40;;
30249;SDS011;17064;47.974;13.826;2023-02-28T07:46:17;31.33;;;14.27;;
30249;SDS011;17064;47.974;13.826;2023-02-28T07:51:20;28.70;;;14.13;;
30249;SDS011;17064;47.974;13.826;2023-02-28T07:56:22;35.63;;;15.10;;
30249;SDS011;17064;47.974;13.826;2023-02-28T08:01:23;30.73;;;14.90;;
30249;SDS011;17064;47.974;13.826;2023-02-28T08:06:24;31.92;;;14.45;;
30249;SDS011;17064;47.974;13.826;2023-02-28T08:11:26;29.55;;;14.02;;
30249;SDS011;17064;47.974;13.826;2023-02-28T08:16:27;29.83;;;14.80;;
30249;SDS011;17064;47.974;13.826;2023-02-28T08:21:27;32.17;;;13.85;;
30249;SDS011;17064;47.974;13.826;2023-02-28T08:26:28;29.15;;;13.50;;
30249;SDS011;17064;47.974;13.826;2023-02-28T08:31:29;27.83;;;14.38;;
30249;SDS011;17064;47.974;13.826;2023-02-28T08:36:29;33.95;;;14.27;;
30249;SDS011;17064;47.974;13.826;2023-02-28T08:41:30;29.13;;;13.75;;
30249;SDS011;17064;47.974;13.826;2023-02-28T08:46:31;31.63;;;14.20;;
30249;SDS011;17064;47.974;13.826;2023-02-28T08:51:32;26.65;;;13.63;;
30249;SDS011;17064;47.974;13.826;2023-02-28T08:56:33;27.17;;;14.07;;
30249;SDS011;17064;47.974;13.826;2023-02-28T09:01:34;26.60;;;12.95;;
30249;SDS011;17064;47.974;13.826;2023-02-28T09:06:36;28.60;;;12.88;;
30249;SDS011;17064;47.974;13.826;2023-02-28T09:11:37;28.65;;;14.43;;
30249;SDS011;17064;47.974;13.826;2023-02-28T09:16:37;28.38;;;13.65;;
30249;SDS011;17064;47.974;13.826;2023-02-28T09:21:38;29.67;;;13.02;;
30249;SDS011;17064;47.974;13.826;2023-02-28T09:26:39;28.52;;;13.85;;
30249;SDS011;17064;47.974;13.826;2023-02-28T09:31:40;26.45;;;13.38;;
30249;SDS011;17064;47.974;13.826;2023-02-28T09:36:41;31.17;;;13.65;;
30249;SDS011;17064;47.974;13.826;2023-02-28T09:41:42;26.00;;;12.50;;
30249;SDS011;17064;47.974;13.826;2023-02-28T09:46:51;27.58;;;12.18;;
30249;SDS011;17064;47.974;13.826;2023-02-28T09:52:01;23.08;;;12.00;;
30249;SDS011;17064;47.974;13.826;2023-02-28T10:02:48;23.08;;;12.60;;
30249;SDS011;17064;47.974;13.826;2023-02-28T10:13:02;23.85;;;11.65;;
30249;SDS011;17064;47.974;13.826;2023-02-28T10:18:11;21.75;;;10.65;;
30249;SDS011;17064;47.974;13.826;2023-02-28T10:23:34;22.52;;;11.95;;
30249;SDS011;17064;47.974;13.826;2023-02-28T10:28:36;20.70;;;11.35;;
30249;SDS011;17064;47.974;13.826;2023-02-28T10:33:36;25.45;;;11.43;;
30249;SDS011;17064;47.974;13.826;2023-02-28T10:38:38;23.80;;;10.75;;
30249;SDS011;17064;47.974;13.826;2023-02-28T10:43:40;16.55;;;10.07;;
30249;SDS011;17064;47.974;13.826;2023-02-28T10:48:48;21.43;;;10.90;;
30249;SDS011;17064;47.974;13.826;2023-02-28T10:54:14;22.23;;;9.70;;
30249;SDS011;17064;47.974;13.826;2023-02-28T10:59:37;20.38;;;10.88;;
30249;SDS011;17064;47.974;13.826;2023-02-28T11:04:37;18.38;;;9.75;;
30249;SDS011;17064;47.974;13.826;2023-02-28T11:09:40;21.08;;;10.60;;
30249;SDS011;17064;47.974;13.826;2023-02-28T11:14:47;23.85;;;10.32;;
30249;SDS011;17064;47.974;13.826;2023-02-28T11:20:18;20.20;;;10.57;;
30249;SDS011;17064;47.974;13.826;2023-02-28T11:25:30;20.38;;;9.95;;
30249;SDS011;17064;47.974;13.826;2023-02-28T11:30:37;23.25;;;10.93;;
30249;SDS011;17064;47.974;13.826;2023-02-28T11:35:39;17.15;;;10.07;;
30249;SDS011;17064;47.974;13.826;2023-02-28T11:56:39;16.55;;;9.60;;
30249;SDS011;17064;47.974;13.826;2023-02-28T12:02:13;20.92;;;11.52;;
30249;SDS011;17064;47.974;13.826;2023-02-28T12:07:33;18.65;;;9.68;;
30249;SDS011;17064;47.974;13.826;2023-02-28T12:18:19;16.90;;;9.43;;
30249;SDS011;17064;47.974;13.826;2023-02-28T12:23:56;15.55;;;9.40;;
30249;SDS011;17064;47.974;13.826;2023-02-28T12:34:27;15.20;;;8.50;;
30249;SDS011;17064;47.974;13.826;2023-02-28T12:39:38;15.80;;;9.07;;
30249;SDS011;17064;47.974;13.826;2023-02-28T12:50:15;18.25;;;9.70;;
30249;SDS011;17064;47.974;13.826;2023-02-28T13:00:36;16.08;;;10.23;;
30249;SDS011;17064;47.974;13.826;2023-02-28T13:11:24;17.80;;;9.93;;
30249;SDS011;17064;47.974;13.826;2023-02-28T13:22:19;19.52;;;10.27;;
30249;SDS011;17064;47.974;13.826;2023-02-28T13:27:47;15.07;;;9.02;;
30249;SDS011;17064;47.974;13.826;2023-02-28T13:33:17;15.77;;;9.57;;
30249;SDS011;17064;47.974;13.826;2023-02-28T13:38:32;21.25;;;9.63;;
30249;SDS011;17064;47.974;13.826;2023-02-28T14:00:07;15.20;;;9.48;;
30249;SDS011;17064;47.974;13.826;2023-02-28T14:05:17;15.27;;;9.70;;
30249;SDS011;17064;47.974;13.826;2023-02-28T14:10:28;17.60;;;11.05;;
30249;SDS011;17064;47.974;13.826;2023-02-28T14:20:33;21.38;;;11.05;;
30249;SDS011;17064;47.974;13.826;2023-02-28T14:31:15;27.25;;;12.70;;
30249;SDS011;17064;47.974;13.826;2023-02-28T14:36:24;35.10;;;11.93;;
30249;SDS011;17064;47.974;13.826;2023-02-28T14:41:35;21.23;;;11.77;;
30249;SDS011;17064;47.974;13.826;2023-02-28T14:46:39;23.52;;;11.35;;
30249;SDS011;17064;47.974;13.826;2023-02-28T14:51:41;24.33;;;12.57;;
30249;SDS011;17064;47.974;13.826;2023-02-28T14:56:42;32.60;;;12.10;;
30249;SDS011;17064;47.974;13.826;2023-02-28T15:01:43;18.92;;;11.63;;
30249;SDS011;17064;47.974;13.826;2023-02-28T15:06:44;21.73;;;11.95;;
30249;SDS011;17064;47.974;13.826;2023-02-28T15:11:45;25.50;;;13.25;;
30249;SDS011;17064;47.974;13.826;2023-02-28T15:16:51;22.08;;;12.55;;
30249;SDS011;17064;47.974;13.826;2023-02-28T15:21:58;25.40;;;11.95;;
30249;SDS011;17064;47.974;13.826;2023-02-28T15:27:04;26.95;;;12.75;;
30249;SDS011;17064;47.974;13.826;2023-02-28T15:32:07;27.30;;;13.90;;
30249;SDS011;17064;47.974;13.826;2023-02-28T15:42:27;33.17;;;16.08;;
30249;SDS011;17064;47.974;13.826;2023-02-28T15:47:29;25.95;;;12.98;;
30249;SDS011;17064;47.974;13.826;2023-02-28T15:52:37;27.08;;;12.10;;
30249;SDS011;17064;47.974;13.826;2023-02-28T15:57:43;26.98;;;13.40;;
30249;SDS011;17064;47.974;13.826;2023-02-28T16:02:46;22.33;;;11.85;;
30249;SDS011;17064;47.974;13.826;2023-02-28T16:07:47;24.27;;;12.57;;
30249;SDS011;17064;47.974;13.826;2023-02-28T16:12:48;25.30;;;13.43;;
30249;SDS011;17064;47.974;13.826;2023-02-28T16:17:49;25.25;;;12.82;;
30249;SDS011;17064;47.974;13.826;2023-02-28T16:22:50;26.63;;;13.52;;
30249;SDS011;17064;47.974;13.826;2023-02-28T16:27:51;26.80;;;13.82;;
30249;SDS011;17064;47.974;13.826;2023-02-28T16:32:54;29.00;;;13.75;;
30249;SDS011;17064;47.974;13.826;2023-02-28T16:37:56;22.63;;;12.05;;
30249;SDS011;17064;47.974;13.826;2023-02-28T16:42:57;23.95;;;12.90;;
30249;SDS011;17064;47.974;13.826;2023-02-28T16:48:00;27.40;;;13.88;;
30249;SDS011;17064;47.974;13.826;2023-02-28T16:53:01;27.52;;;13.68;;
30249;SDS011;17064;47.974;13.826;2023-02-28T16:58:02;25.27;;;13.68;;
30249;SDS011;17064;47.974;13.826;2023-02-28T17:03:03;28.73;;;13.73;;
30249;SDS011;17064;47.974;13.826;2023-02-28T17:08:04;28.48;;;12.52;;
30249;SDS011;17064;47.974;13.826;2023-02-28T17:13:05;23.40;;;12.70;;
30249;SDS011;17064;47.974;13.826;2023-02-28T17:18:08;30.73;;;13.23;;
30249;SDS011;17064;47.974;13.826;2023-02-28T17:23:15;23.70;;;12.30;;
30249;SDS011;17064;47.974;13.826;2023-02-28T17:28:16;23.65;;;12.85;;
30249;SDS011;17064;47.974;13.826;2023-02-28T17:33:17;24.95;;;13.07;;
30249;SDS011;17064;47.974;13.826;2023-02-28T17:38:18;30.42;;;13.93;;
30249;SDS011;17064;47.974;13.826;2023-02-28T17:43:25;26.60;;;12.93;;
30249;SDS011;17064;47.974;13.826;2023-02-28T17:48:26;26.98;;;13.90;;
30249;SDS011;17064;47.974;13.826;2023-02-28T17:53:27;28.17;;;13.95;;
30249;SDS011;17064;47.974;13.826;2023-02-28T17:58:28;26.83;;;12.43;;
30249;SDS011;17064;47.974;13.826;2023-02-28T18:03:31;26.10;;;13.68;;
30249;SDS011;17064;47.974;13.826;2023-02-28T18:08:32;29.38;;;13.48;;
30249;SDS011;17064;47.974;13.826;2023-02-28T18:13:35;27.52;;;13.68;;
30249;SDS011;17064;47.974;13.826;2023-02-28T18:18:36;26.27;;;12.88;;
30249;SDS011;17064;47.974;13.826;2023-02-28T18:23:37;23.65;;;12.27;;
30249;SDS011;17064;47.974;13.826;2023-02-28T18:28:47;24.00;;;12.80;;
30249;SDS011;17064;47.974;13.826;2023-02-28T18:33:50;23.30;;;12.32;;
30249;SDS011;17064;47.974;13.826;2023-02-28T18:38:52;26.30;;;13.18;;
30249;SDS011;17064;47.974;13.826;2023-02-28T18:43:54;24.45;;;13.15;;
30249;SDS011;17064;47.974;13.826;2023-02-28T18:48:55;25.85;;;13.57;;
30249;SDS011;17064;47.974;13.826;2023-02-28T18:53:57;24.17;;;12.25;;
30249;SDS011;17064;47.974;13.826;2023-02-28T18:58:59;27.73;;;12.93;;
30249;SDS011;17064;47.974;13.826;2023-02-28T19:04:00;24.63;;;13.18;;
30249;SDS011;17064;47.974;13.826;2023-02-28T19:09:03;25.33;;;12.30;;
30249;SDS011;17064;47.974;13.826;2023-02-28T19:14:04;24.20;;;12.80;;
30249;SDS011;17064;47.974;13.826;2023-02-28T19:19:06;27.75;;;13.40;;
30249;SDS011;17064;47.974;13.826;2023-02-28T19:24:07;25.40;;;12.85;;
30249;SDS011;17064;47.974;13.826;2023-02-28T19:29:08;25.65;;;13.25;;
30249;SDS011;17064;47.974;13.826;2023-02-28T19:34:10;23.65;;;11.25;;
30249;SDS011;17064;47.974;13.826;2023-02-28T19:39:11;20.65;;;12.00;;
30249;SDS011;17064;47.974;13.826;2023-02-28T19:44:13;25.08;;;11.90;;
30249;SDS011;17064;47.974;13.826;2023-02-28T19:49:15;25.95;;;13.07;;
30249;SDS011;17064;47.974;13.826;2023-02-28T19:54:17;28.87;;;12.03;;
30249;SDS011;17064;47.974;13.826;2023-02-28T19:59:19;31.15;;;12.27;;
30249;SDS011;17064;47.974;13.826;2023-02-28T20:04:21;25.10;;;12.10;;
30249;SDS011;17064;47.974;13.826;2023-02-28T20:09:23;24.52;;;12.32;;
30249;SDS011;17064;47.974;13.826;2023-02-28T20:14:25;19.40;;;12.15;;
30249;SDS011;17064;47.974;13.826;2023-02-28T20:19:26;23.75;;;11.98;;
30249;SDS011;17064;47.974;13.826;2023-02-28T20:24:28;25.10;;;12.43;;
30249;SDS011;17064;47.974;13.826;2023-02-28T20:29:29;21.98;;;11.57;;
30249;SDS011;17064;47.974;13.826;2023-02-28T20:34:30;27.23;;;12.40;;
30249;SDS011;17064;47.974;13.826;2023-02-28T20:39:31;24.05;;;12.80;;
30249;SDS011;17064;47.974;13.826;2023-02-28T20:44:32;21.77;;;11.93;;
30249;SDS011;17064;47.974;13.826;2023-02-28T20:49:33;24.80;;;11.95;;
30249;SDS011;17064;47.974;13.826;2023-02-28T20:54:34;28.60;;;12.65;;
30249;SDS011;17064;47.974;13.826;2023-02-28T20:59:35;26.77;;;11.82;;
30249;SDS011;17064;47.974;13.826;2023-02-28T21:04:38;23.80;;;12.50;;
30249;SDS011;17064;47.974;13.826;2023-02-28T21:09:39;23.38;;;12.38;;
30249;SDS011;17064;47.974;13.826;2023-02-28T21:14:40;22.30;;;11.45;;
30249;SDS011;17064;47.974;13.826;2023-02-28T21:19:41;24.50;;;11.98;;
30249;SDS011;17064;47.974;13.826;2023-02-28T21:24:42;30.73;;;12.35;;
30249;SDS011;17064;47.974;13.826;2023-02-28T21:29:43;25.10;;;12.10;;
30249;SDS011;17064;47.974;13.826;2023-02-28T21:34:44;26.30;;;12.98;;
30249;SDS011;17064;47.974;13.826;2023-02-28T21:39:45;22.13;;;11.57;;
30249;SDS011;17064;47.974;13.826;2023-02-28T21:44:46;28.67;;;12.20;;
30249;SDS011;17064;47.974;13.826;2023-02-28T21:49:47;21.02;;;11.40;;
30249;SDS011;17064;47.974;13.826;2023-02-28T21:54:47;24.27;;;11.23;;
30249;SDS011;17064;47.974;13.826;2023-02-28T21:59:48;24.20;;;11.32;;
30249;SDS011;17064;47.974;13.826;2023-02-28T22:04:49;23.00;;;11.98;;
30249;SDS011;17064;47.974;13.826;2023-02-28T22:09:50;21.88;;;11.63;;
30249;SDS011;17064;47.974;13.826;2023-02-28T22:14:50;24.50;;;11.18;;
30249;SDS011;17064;47.974;13.826;2023-02-28T22:19:51;28.60;;;12.27;;
30249;SDS011;17064;47.974;13.826;2023-02-28T22:24:52;22.33;;;12.00;;
30249;SDS011;17064;47.974;13.826;2023-02-28T22:29:55;27.15;;;11.65;;
30249;SDS011;17064;47.974;13.826;2023-02-28T22:34:56;25.35;;;13.10;;
30249;SDS011;17064;47.974;13.826;2023-02-28T22:39:57;24.58;;;12.70;;
30249;SDS011;17064;47.974;13.826;2023-02-28T22:44:58;22.10;;;11.98;;
30249;SDS011;17064;47.974;13.826;2023-02-28T22:49:59;25.27;;;11.20;;
30249;SDS011;17064;47.974;13.826;2023-02-28T22:54:59;22.00;;;11.60;;
30249;SDS011;17064;47.974;13.826;2023-02-28T23:00:00;24.85;;;12.07;;
30249;SDS011;17064;47.974;13.826;2023-02-28T23:05:06;24.15;;;11.45;;
30249;SDS011;17064;47.974;13.826;2023-02-28T23:10:08;22.88;;;11.50;;
30249;SDS011;17064;47.974;13.826;2023-02-28T23:15:11;24.58;;;11.57;;
30249;SDS011;17064;47.974;13.826;2023-02-28T23:20:13;25.08;;;12.77;;
30249;SDS011;17064;47.974;13.826;2023-02-28T23:25:17;25.02;;;11.43;;
30249;SDS011;17064;47.974;13.826;2023-02-28T23:30:19;24.33;;;11.73;;
30249;SDS011;17064;47.974;13.826;2023-02-28T23:35:20;26.13;;;11.82;;
30249;SDS011;17064;47.974;13.826;2023-02-28T23:40:21;23.30;;;11.93;;
30249;SDS011;17064;47.974;13.826;2023-02-28T23:45:22;23.50;;;12.77;;
30249;SDS011;17064;47.974;13.826;2023-02-28T23:50:23;24.60;;;12.00;;
30249;SDS011;17064;47.974;13.826;2023-02-28T23:55:24;23.02;;;11.35;;
